Alpha, Ohio
Current Conditions -  °F | °C
As of 10:58 AM on Tuesday 27 Jan 2015 (Local Time) from KFFO Reporting Station
Few Clouds Few Clouds  
Wind Chill: 18°   Ceiling: Unl
Heat Index: 18°   Visibility: 10mi
Dew Point: 12°   Wind: 3mph
Humidity: 77%   Direction: 60°ENE
Pressure: 30.09"   Gusts: NA
Location:  39.71°N, 84.02°W
Report Text: KFFO 271558Z 06003KT 10SM FEW120 M08/M11 A3009 RMK AO2A SLP207 T10771111
Loading
Personal Weather Stations






























Interactive Weather Map New forecast layout! Learn more

10-Day Weather Forecast

Advertisements
Track Severe Weather on mobile